Time,TemperatureF,DewpointF,PressureIn,WindDirection,WindDirectionDegrees,WindSpeedMPH,WindSpeedGustMPH,Humidity,HourlyPrecipIn,Conditions,Clouds,dailyrainin,SoftwareType,DateUTC
2013-05-10 00:00:00,72.3,63.9,30.14,WNW,287,0.0,1.0,75,0.00,,,0.00,Wunderground v.1.15,2013-05-10 04:00:00,
2013-05-10 00:05:00,72.5,64.1,30.14,WNW,287,0.0,1.0,75,0.00,,,0.00,Wunderground v.1.15,2013-05-10 04:05:00,
2013-05-10 00:10:00,72.5,64.5,30.14,WNW,287,0.0,1.0,76,0.00,,,0.00,Wunderground v.1.15,2013-05-10 04:10:00,
2013-05-10 00:15:00,72.4,64.0,30.14,WNW,287,0.0,1.0,75,0.00,,,0.00,Wunderground v.1.15,2013-05-10 04:15:00,
2013-05-10 00:20:00,72.2,63.8,30.14,WNW,287,0.0,1.0,75,0.00,,,0.00,Wunderground v.1.15,2013-05-10 04:20:00,
2013-05-10 00:25:00,72.2,64.2,30.15,WNW,287,0.0,1.0,76,0.00,,,0.00,Wunderground v.1.15,2013-05-10 04:25:00,
2013-05-10 00:35:00,71.5,64.6,30.15,WNW,287,0.0,1.0,79,0.00,,,0.00,Wunderground v.1.15,2013-05-10 04:35:00,
2013-05-10 00:40:00,71.0,64.2,30.15,WNW,287,0.0,1.0,79,0.00,,,0.00,Wunderground v.1.15,2013-05-10 04:40:00,
2013-05-10 00:45:00,69.4,63.0,30.15,WNW,287,0.0,1.0,80,0.00,,,0.00,Wunderground v.1.15,2013-05-10 04:45:00,
2013-05-10 00:55:00,68.6,62.5,30.15,WNW,287,0.0,1.0,81,0.00,,,0.00,Wunderground v.1.15,2013-05-10 04:55:00,
2013-05-10 01:00:00,68.1,62.7,30.15,WNW,287,0.0,0.0,83,0.00,,,0.00,Wunderground v.1.15,2013-05-10 05:00:00,
2013-05-10 01:10:00,67.9,63.2,30.14,WNW,287,0.0,0.0,85,0.00,,,0.00,Wunderground v.1.15,2013-05-10 05:10:00,
2013-05-10 01:15:00,68.3,63.3,30.14,WNW,287,0.0,0.0,84,0.00,,,0.00,Wunderground v.1.15,2013-05-10 05:15:00,
2013-05-10 01:20:00,68.7,63.3,30.14,WNW,287,0.0,0.0,83,0.00,,,0.00,Wunderground v.1.15,2013-05-10 05:20:00,
2013-05-10 01:25:00,69.0,63.6,30.14,WNW,287,0.0,0.0,83,0.00,,,0.00,Wunderground v.1.15,2013-05-10 05:25:00,
2013-05-10 01:30:00,69.1,63.4,30.13,WNW,287,0.0,0.0,82,0.00,,,0.00,Wunderground v.1.15,2013-05-10 05:30:00,
2013-05-10 01:40:00,70.4,63.6,30.13,WNW,287,0.0,0.0,79,0.00,,,0.00,Wunderground v.1.15,2013-05-10 05:40:00,
2013-05-10 01:45:00,70.6,63.8,30.13,WNW,287,0.0,0.0,79,0.00,,,0.00,Wunderground v.1.15,2013-05-10 05:45:00,
2013-05-10 01:50:00,70.3,63.5,30.13,WNW,287,0.0,0.0,79,0.00,,,0.00,Wunderground v.1.15,2013-05-10 05:50:00,
2013-05-10 01:55:00,69.9,63.4,30.13,WNW,287,0.0,0.0,80,0.00,,,0.00,Wunderground v.1.15,2013-05-10 05:55:00,
2013-05-10 02:00:00,69.5,63.8,30.12,WNW,287,0.0,0.0,82,0.00,,,0.00,Wunderground v.1.15,2013-05-10 06:00:00,
2013-05-10 02:10:00,69.6,63.9,30.11,WNW,287,1.0,1.0,82,0.00,,,0.00,Wunderground v.1.15,2013-05-10 06:10:00,
2013-05-10 02:15:00,69.7,64.0,30.12,WNW,287,1.0,1.0,82,0.00,,,0.00,Wunderground v.1.15,2013-05-10 06:15:00,
2013-05-10 02:20:00,69.7,63.6,30.11,WNW,287,0.0,0.0,81,0.00,,,0.00,Wunderground v.1.15,2013-05-10 06:20:00,
2013-05-10 02:25:00,69.7,63.6,30.11,WNW,287,0.0,0.0,81,0.00,,,0.00,Wunderground v.1.15,2013-05-10 06:25:00,
2013-05-10 02:30:00,69.7,63.6,30.10,WNW,287,0.0,0.0,81,0.00,,,0.00,Wunderground v.1.15,2013-05-10 06:30:00,
2013-05-10 02:35:00,69.8,63.7,30.10,WNW,287,0.0,0.0,81,0.00,,,0.00,Wunderground v.1.15,2013-05-10 06:35:00,
2013-05-10 02:40:00,69.5,63.4,30.10,WNW,287,0.0,0.0,81,0.00,,,0.00,Wunderground v.1.15,2013-05-10 06:40:00,
2013-05-10 02:50:00,69.5,63.8,30.10,WNW,287,0.0,0.0,82,0.00,,,0.00,Wunderground v.1.15,2013-05-10 06:50:00,
2013-05-10 02:55:00,69.6,63.9,30.10,WNW,287,0.0,0.0,82,0.00,,,0.00,Wunderground v.1.15,2013-05-10 06:55:00,
2013-05-10 03:00:00,69.6,63.9,30.10,WNW,287,0.0,0.0,82,0.00,,,0.00,Wunderground v.1.15,2013-05-10 07:00:00,
2013-05-10 03:10:00,69.7,64.0,30.10,WNW,287,0.0,0.0,82,0.00,,,0.00,Wunderground v.1.15,2013-05-10 07:10:00,
2013-05-10 03:15:00,69.8,63.7,30.10,WNW,287,0.0,0.0,81,0.00,,,0.00,Wunderground v.1.15,2013-05-10 07:15:00,
2013-05-10 03:25:00,69.5,63.4,30.09,WNW,287,0.0,0.0,81,0.00,,,0.00,Wunderground v.1.15,2013-05-10 07:25:00,
2013-05-10 03:30:00,69.2,63.5,30.09,WNW,287,0.0,0.0,82,0.00,,,0.00,Wunderground v.1.15,2013-05-10 07:30:00,
2013-05-10 03:35:00,68.8,63.4,30.09,WNW,287,0.0,0.0,83,0.00,,,0.00,Wunderground v.1.15,2013-05-10 07:35:00,
2013-05-10 03:40:00,68.5,63.5,30.09,WNW,287,0.0,0.0,84,0.00,,,0.00,Wunderground v.1.15,2013-05-10 07:40:00,
2013-05-10 03:50:00,67.6,62.6,30.10,WNW,287,1.0,1.0,84,0.00,,,0.00,Wunderground v.1.15,2013-05-10 07:50:00,
2013-05-10 03:55:00,67.4,62.7,30.10,WNW,287,1.0,1.0,85,0.00,,,0.00,Wunderground v.1.15,2013-05-10 07:55:00,
2013-05-10 04:00:00,67.0,62.7,30.10,WNW,287,0.0,0.0,86,0.00,,,0.00,Wunderground v.1.15,2013-05-10 08:00:00,
2013-05-10 04:10:00,66.9,62.9,30.09,WNW,287,0.0,0.0,87,0.00,,,0.00,Wunderground v.1.15,2013-05-10 08:10:00,
2013-05-10 04:15:00,67.0,62.7,30.09,WNW,287,0.0,0.0,86,0.00,,,0.00,Wunderground v.1.15,2013-05-10 08:15:00,
2013-05-10 04:20:00,67.0,63.0,30.09,WNW,287,0.0,0.0,87,0.00,,,0.00,Wunderground v.1.15,2013-05-10 08:20:00,
2013-05-10 04:30:00,66.5,62.5,30.08,WNW,287,0.0,0.0,87,0.00,,,0.00,Wunderground v.1.15,2013-05-10 08:30:00,
2013-05-10 04:35:00,66.3,62.3,30.08,WNW,287,0.0,0.0,87,0.00,,,0.00,Wunderground v.1.15,2013-05-10 08:35:00,
2013-05-10 04:45:00,66.7,62.4,30.07,WNW,287,0.0,0.0,86,0.00,,,0.00,Wunderground v.1.15,2013-05-10 08:45:00,
2013-05-10 04:50:00,66.8,62.5,30.07,WNW,287,0.0,0.0,86,0.00,,,0.00,Wunderground v.1.15,2013-05-10 08:50:00,
2013-05-10 05:00:00,66.9,62.6,30.07,WNW,287,0.0,0.0,86,0.00,,,0.00,Wunderground v.1.15,2013-05-10 09:00:00,
2013-05-10 05:10:00,67.0,62.7,30.07,WNW,287,0.0,0.0,86,0.00,,,0.00,Wunderground v.1.15,2013-05-10 09:10:00,
2013-05-10 05:15:00,67.2,63.2,30.07,WNW,287,0.0,0.0,87,0.00,,,0.00,Wunderground v.1.15,2013-05-10 09:15:00,
2013-05-10 05:20:00,67.2,63.2,30.07,WNW,287,0.0,0.0,87,0.00,,,0.00,Wunderground v.1.15,2013-05-10 09:20:00,
2013-05-10 05:25:00,67.1,63.1,30.07,WNW,287,0.0,0.0,87,0.00,,,0.00,Wunderground v.1.15,2013-05-10 09:25:00,
2013-05-10 05:35:00,67.1,63.1,30.07,WNW,287,0.0,0.0,87,0.00,,,0.00,Wunderground v.1.15,2013-05-10 09:35:00,
2013-05-10 05:40:00,67.1,63.4,30.07,WNW,287,0.0,0.0,88,0.00,,,0.00,Wunderground v.1.15,2013-05-10 09:40:00,
2013-05-10 05:45:00,67.0,63.3,30.08,WNW,287,0.0,0.0,88,0.00,,,0.00,Wunderground v.1.15,2013-05-10 09:45:00,
2013-05-10 05:55:00,66.9,63.9,30.07,WNW,287,0.0,0.0,90,0.00,,,0.00,Wunderground v.1.15,2013-05-10 09:55:00,
2013-05-10 06:00:00,66.5,63.5,30.07,WNW,287,0.0,0.0,90,0.00,,,0.00,Wunderground v.1.15,2013-05-10 10:00:00,
2013-05-10 06:10:00,66.1,63.1,30.08,WNW,287,0.0,0.0,90,0.00,,,0.00,Wunderground v.1.15,2013-05-10 10:10:00,
2013-05-10 06:15:00,65.9,62.9,30.08,WNW,287,0.0,0.0,90,0.00,,,0.00,Wunderground v.1.15,2013-05-10 10:15:00,
2013-05-10 06:20:00,65.6,62.6,30.09,WNW,287,0.0,0.0,90,0.00,,,0.00,Wunderground v.1.15,2013-05-10 10:20:00,
2013-05-10 06:25:00,65.2,61.9,30.09,WNW,287,0.0,0.0,89,0.00,,,0.00,Wunderground v.1.15,2013-05-10 10:25:00,
2013-05-10 06:30:00,64.7,61.7,30.09,WNW,287,0.0,0.0,90,0.00,,,0.00,Wunderground v.1.15,2013-05-10 10:30:00,
2013-05-10 06:35:00,64.4,62.0,30.09,WNW,287,0.0,0.0,92,0.00,,,0.00,Wunderground v.1.15,2013-05-10 10:35:00,
2013-05-10 06:40:00,64.3,61.9,30.08,WNW,287,0.0,0.0,92,0.00,,,0.00,Wunderground v.1.15,2013-05-10 10:40:00,
2013-05-10 06:45:00,64.3,61.9,30.09,WNW,287,0.0,0.0,92,0.00,,,0.00,Wunderground v.1.15,2013-05-10 10:45:00,
2013-05-10 06:50:00,64.4,62.0,30.09,WNW,287,0.0,0.0,92,0.00,,,0.00,Wunderground v.1.15,2013-05-10 10:50:00,
2013-05-10 06:55:00,64.5,61.8,30.09,WNW,287,0.0,0.0,91,0.00,,,0.00,Wunderground v.1.15,2013-05-10 10:55:00,
2013-05-10 07:00:00,64.5,61.8,30.09,WNW,287,0.0,0.0,91,0.00,,,0.00,Wunderground v.1.15,2013-05-10 11:00:00,
2013-05-10 07:10:00,64.9,62.2,30.09,WNW,287,0.0,0.0,91,0.00,,,0.00,Wunderground v.1.15,2013-05-10 11:10:00,
2013-05-10 07:15:00,65.0,62.3,30.09,WNW,287,0.0,0.0,91,0.00,,,0.00,Wunderground v.1.15,2013-05-10 11:15:00,
2013-05-10 07:20:00,65.2,62.2,30.09,WNW,287,0.0,0.0,90,0.00,,,0.00,Wunderground v.1.15,2013-05-10 11:20:00,
2013-05-10 07:25:00,65.4,62.4,30.09,WNW,287,0.0,0.0,90,0.00,,,0.00,Wunderground v.1.15,2013-05-10 11:25:00,
2013-05-10 07:30:00,66.1,63.1,30.09,WNW,287,0.0,0.0,90,0.00,,,0.00,Wunderground v.1.15,2013-05-10 11:30:00,
2013-05-10 07:40:00,66.9,63.2,30.09,WNW,287,0.0,0.0,88,0.00,,,0.00,Wunderground v.1.15,2013-05-10 11:40:00,
2013-05-10 07:45:00,67.2,63.5,30.09,WNW,287,0.0,0.0,88,0.00,,,0.00,Wunderground v.1.15,2013-05-10 11:45:00,
2013-05-10 07:50:00,67.6,63.9,30.09,WNW,287,0.0,0.0,88,0.00,,,0.00,Wunderground v.1.15,2013-05-10 11:50:00,
2013-05-10 08:00:00,68.5,64.1,30.09,WNW,287,0.0,0.0,86,0.00,,,0.00,Wunderground v.1.15,2013-05-10 12:00:00,
2013-05-10 08:10:00,69.7,64.6,30.10,WNW,287,0.0,0.0,84,0.00,,,0.00,Wunderground v.1.15,2013-05-10 12:10:00,
2013-05-10 08:15:00,70.3,64.9,30.10,WNW,287,0.0,0.0,83,0.00,,,0.00,Wunderground v.1.15,2013-05-10 12:15:00,
2013-05-10 08:25:00,71.6,65.5,30.09,WNW,287,0.0,0.0,81,0.00,,,0.00,Wunderground v.1.15,2013-05-10 12:25:00,
2013-05-10 08:30:00,72.4,64.8,30.10,WNW,287,0.0,0.0,77,0.00,,,0.00,Wunderground v.1.15,2013-05-10 12:30:00,
2013-05-10 08:35:00,73.0,65.4,30.10,WNW,287,0.0,0.0,77,0.00,,,0.00,Wunderground v.1.15,2013-05-10 12:35:00,
2013-05-10 08:40:00,74.0,66.0,30.10,WNW,287,0.0,0.0,76,0.00,,,0.00,Wunderground v.1.15,2013-05-10 12:40:00,
2013-05-10 08:45:00,74.9,66.1,30.10,WNW,287,0.0,0.0,74,0.00,,,0.00,Wunderground v.1.15,2013-05-10 12:45:00,
2013-05-10 08:55:00,76.4,68.3,30.11,WNW,287,0.0,4.0,76,0.00,,,0.00,Wunderground v.1.15,2013-05-10 12:55:00,
2013-05-10 09:00:00,76.8,69.4,30.11,WNW,287,1.0,5.0,78,0.00,,,0.00,Wunderground v.1.15,2013-05-10 13:00:00,
2013-05-10 09:10:00,77.6,70.9,30.11,WNW,287,2.0,7.0,80,0.00,,,0.00,Wunderground v.1.15,2013-05-10 13:10:00,
2013-05-10 09:15:00,77.7,71.0,30.11,WNW,287,3.0,7.0,80,0.00,,,0.00,Wunderground v.1.15,2013-05-10 13:15:00,
2013-05-10 09:20:00,78.1,71.4,30.11,WNW,287,2.0,2.0,80,0.00,,,0.00,Wunderground v.1.15,2013-05-10 13:20:00,
2013-05-10 09:30:00,79.5,72.4,30.10,WNW,287,1.0,5.0,79,0.00,,,0.00,Wunderground v.1.15,2013-05-10 13:30:00,
2013-05-10 09:35:00,79.8,72.3,30.11,WNW,287,2.0,5.0,78,0.00,,,0.00,Wunderground v.1.15,2013-05-10 13:35:00,
2013-05-10 09:40:00,80.4,72.5,30.11,WNW,287,2.0,5.0,77,0.00,,,0.00,Wunderground v.1.15,2013-05-10 13:40:00,
2013-05-10 09:50:00,80.9,72.6,30.10,WNW,285,2.0,2.0,76,0.00,,,0.00,Wunderground v.1.15,2013-05-10 13:50:00,
2013-05-10 10:00:00,81.9,73.2,30.11,WNW,288,2.0,2.0,75,0.00,,,0.00,Wunderground v.1.15,2013-05-10 14:00:00,
2013-05-10 10:10:00,83.0,72.2,30.11,WNW,297,1.0,2.0,70,0.00,,,0.00,Wunderground v.1.15,2013-05-10 14:10:00,
2013-05-10 10:15:00,83.3,72.5,30.11,NW,311,1.0,2.0,70,0.00,,,0.00,Wunderground v.1.15,2013-05-10 14:15:00,
2013-05-10 10:25:00,83.8,72.5,30.11,NW,311,1.0,1.0,69,0.00,,,0.00,Wunderground v.1.15,2013-05-10 14:25:00,
2013-05-10 10:30:00,84.0,72.7,30.11,NW,315,1.0,1.0,69,0.00,,,0.00,Wunderground v.1.15,2013-05-10 14:30:00,
2013-05-10 10:35:00,84.6,72.9,30.11,NW,313,0.0,1.0,68,0.00,,,0.00,Wunderground v.1.15,2013-05-10 14:35:00,
2013-05-10 10:40:00,85.0,71.9,30.10,NW,304,0.0,6.0,65,0.00,,,0.00,Wunderground v.1.15,2013-05-10 14:40:00,
2013-05-10 10:45:00,85.1,72.0,30.11,NW,304,1.0,6.0,65,0.00,,,0.00,Wunderground v.1.15,2013-05-10 14:45:00,
2013-05-10 10:55:00,84.8,71.7,30.10,WNW,295,0.0,1.0,65,0.00,,,0.00,Wunderground v.1.15,2013-05-10 14:55:00,
2013-05-10 11:00:00,84.9,71.4,30.10,WNW,293,1.0,5.0,64,0.00,,,0.00,Wunderground v.1.15,2013-05-10 15:00:00,
2013-05-10 11:10:00,85.9,70.9,30.10,NW,307,1.0,4.0,61,0.00,,,0.00,Wunderground v.1.15,2013-05-10 15:10:00,
2013-05-10 11:15:00,86.1,70.6,30.10,NW,315,1.0,4.0,60,0.00,,,0.00,Wunderground v.1.15,2013-05-10 15:15:00,
2013-05-10 11:20:00,86.0,71.0,30.10,NNW,327,2.0,2.0,61,0.00,,,0.00,Wunderground v.1.15,2013-05-10 15:20:00,
2013-05-10 11:25:00,86.6,70.6,30.10,NNW,333,1.0,4.0,59,0.00,,,0.00,Wunderground v.1.15,2013-05-10 15:25:00,
2013-05-10 11:30:00,87.0,70.9,30.10,ESE,102,1.0,1.0,59,0.00,,,0.00,Wunderground v.1.15,2013-05-10 15:30:00,
2013-05-10 11:40:00,87.5,71.9,30.10,East,96,1.0,1.0,60,0.00,,,0.00,Wunderground v.1.15,2013-05-10 15:40:00,
2013-05-10 11:45:00,88.0,70.3,30.09,East,101,1.0,4.0,56,0.00,,,0.00,Wunderground v.1.15,2013-05-10 15:45:00,
2013-05-10 11:50:00,88.2,71.0,30.10,East,98,2.0,2.0,57,0.00,,,0.00,Wunderground v.1.15,2013-05-10 15:50:00,
2013-05-10 11:55:00,88.7,70.5,30.09,East,98,1.0,4.0,55,0.00,,,0.00,Wunderground v.1.15,2013-05-10 15:55:00,
2013-05-10 12:00:00,88.3,70.6,30.09,SE,146,1.0,1.0,56,0.00,,,0.00,Wunderground v.1.15,2013-05-10 16:00:00,
2013-05-10 12:10:00,88.1,70.4,30.09,SE,144,1.0,1.0,56,0.00,,,0.00,Wunderground v.1.15,2013-05-10 16:10:00,
2013-05-10 12:15:00,87.7,70.6,30.09,SE,142,0.0,11.0,57,0.00,,,0.00,Wunderground v.1.15,2013-05-10 16:15:00,
2013-05-10 12:20:00,88.2,70.5,30.09,SSE,158,1.0,1.0,56,0.00,,,0.00,Wunderground v.1.15,2013-05-10 16:20:00,
2013-05-10 12:25:00,89.2,69.8,30.08,SE,138,2.0,2.0,53,0.00,,,0.00,Wunderground v.1.15,2013-05-10 16:25:00,
2013-05-10 12:30:00,89.9,69.9,30.09,SSE,157,1.0,1.0,52,0.00,,,0.00,Wunderground v.1.15,2013-05-10 16:30:00,
2013-05-10 12:35:00,89.8,69.8,30.08,South,178,1.0,11.0,52,0.00,,,0.00,Wunderground v.1.15,2013-05-10 16:35:00,
2013-05-10 12:40:00,90.1,70.7,30.08,South,180,1.0,1.0,53,0.00,,,0.00,Wunderground v.1.15,2013-05-10 16:40:00,
2013-05-10 12:50:00,90.4,69.2,30.08,SW,218,1.0,11.0,50,0.00,,,0.00,Wunderground v.1.15,2013-05-10 16:50:00,
2013-05-10 12:55:00,90.2,69.6,30.08,SSW,213,1.0,11.0,51,0.00,,,0.00,Wunderground v.1.15,2013-05-10 16:55:00,
2013-05-10 13:01:00,90.2,69.0,30.08,SSW,201,1.0,1.0,50,0.00,,,0.00,Wunderground v.1.15,2013-05-10 17:01:00,
2013-05-10 13:10:00,90.2,69.6,30.08,SSW,198,0.0,1.0,51,0.00,,,0.00,Wunderground v.1.15,2013-05-10 17:10:00,
2013-05-10 13:20:00,89.3,69.9,30.08,SSE,155,1.0,1.0,53,0.00,,,0.00,Wunderground v.1.15,2013-05-10 17:20:00,
2013-05-10 13:25:00,90.3,70.3,30.08,SSE,155,1.0,1.0,52,0.00,,,0.00,Wunderground v.1.15,2013-05-10 17:25:00,
2013-05-10 13:30:00,91.3,68.9,30.08,SSE,162,0.0,1.0,48,0.00,,,0.00,Wunderground v.1.15,2013-05-10 17:30:00,
2013-05-10 13:35:00,91.9,70.0,30.08,SSE,161,1.0,1.0,49,0.00,,,0.00,Wunderground v.1.15,2013-05-10 17:35:00,
2013-05-10 13:40:00,92.7,69.5,30.08,SSE,157,1.0,1.0,47,0.00,,,0.00,Wunderground v.1.15,2013-05-10 17:40:00,
2013-05-10 13:45:00,92.0,69.5,30.08,SE,130,2.0,6.0,48,0.00,,,0.00,Wunderground v.1.15,2013-05-10 17:45:00,
2013-05-10 13:55:00,91.5,68.4,30.08,SE,140,2.0,2.0,47,0.00,,,0.00,Wunderground v.1.15,2013-05-10 17:55:00,
2013-05-10 14:00:00,92.0,68.3,30.07,SE,146,2.0,2.0,46,0.00,,,0.00,Wunderground v.1.15,2013-05-10 18:00:00,
2013-05-10 14:10:00,93.5,68.3,30.07,SSE,150,1.0,1.0,44,0.00,,,0.00,Wunderground v.1.15,2013-05-10 18:10:00,
2013-05-10 14:15:00,93.7,68.5,30.07,SSE,155,1.0,3.0,44,0.00,,,0.00,Wunderground v.1.15,2013-05-10 18:15:00,
2013-05-10 14:20:00,93.2,68.7,30.07,SSE,158,1.0,7.0,45,0.00,,,0.00,Wunderground v.1.15,2013-05-10 18:20:00,
2013-05-10 14:30:00,91.7,69.2,30.07,South,172,1.0,1.0,48,0.00,,,0.00,Wunderground v.1.15,2013-05-10 18:30:00,
2013-05-10 14:35:00,91.5,68.4,30.07,South,171,1.0,7.0,47,0.00,,,0.00,Wunderground v.1.15,2013-05-10 18:35:00,
2013-05-10 14:40:00,91.3,68.9,30.06,South,175,1.0,1.0,48,0.00,,,0.00,Wunderground v.1.15,2013-05-10 18:40:00,
2013-05-10 14:45:00,91.2,68.2,30.06,South,175,1.0,7.0,47,0.00,,,0.00,Wunderground v.1.15,2013-05-10 18:45:00,
2013-05-10 14:50:00,91.3,68.2,30.06,South,175,0.0,7.0,47,0.00,,,0.00,Wunderground v.1.15,2013-05-10 18:50:00,
2013-05-10 15:00:00,92.9,69.1,30.04,South,175,0.0,2.0,46,0.00,,,0.00,Wunderground v.1.15,2013-05-10 19:00:00,
2013-05-10 15:10:00,93.7,68.5,30.04,South,181,2.0,2.0,44,0.00,,,0.00,Wunderground v.1.15,2013-05-10 19:10:00,
2013-05-10 15:15:00,93.0,68.5,30.04,South,182,2.0,2.0,45,0.00,,,0.00,Wunderground v.1.15,2013-05-10 19:15:00,
2013-05-10 15:20:00,92.3,69.2,30.04,South,184,1.0,1.0,47,0.00,,,0.00,Wunderground v.1.15,2013-05-10 19:20:00,
2013-05-10 15:25:00,93.5,67.0,30.03,West,281,1.0,8.0,42,0.00,,,0.00,Wunderground v.1.15,2013-05-10 19:25:00,
2013-05-10 15:35:00,94.6,67.3,30.03,WSW,241,3.0,3.0,41,0.00,,,0.00,Wunderground v.1.15,2013-05-10 19:35:00,
2013-05-10 15:40:00,94.5,66.4,30.03,West,281,2.0,10.0,40,0.00,,,0.00,Wunderground v.1.15,2013-05-10 19:40:00,
2013-05-10 15:45:00,92.8,65.6,30.03,WNW,290,5.0,10.0,41,0.00,,,0.00,Wunderground v.1.15,2013-05-10 19:45:00,
2013-05-10 15:50:00,94.2,64.7,30.02,WNW,287,4.0,4.0,38,0.00,,,0.00,Wunderground v.1.15,2013-05-10 19:50:00,
2013-05-10 15:55:00,95.0,65.4,30.02,WNW,287,1.0,4.0,38,0.00,,,0.00,Wunderground v.1.15,2013-05-10 19:55:00,
2013-05-10 16:00:00,95.3,64.9,30.03,WNW,288,1.0,7.0,37,0.00,,,0.00,Wunderground v.1.15,2013-05-10 20:00:00,
2013-05-10 16:10:00,94.1,66.8,30.01,WNW,287,2.0,2.0,41,0.00,,,0.00,Wunderground v.1.15,2013-05-10 20:10:00,
2013-05-10 16:15:00,94.2,66.9,30.01,West,279,1.0,7.0,41,0.00,,,0.00,Wunderground v.1.15,2013-05-10 20:15:00,
2013-05-10 16:25:00,94.0,66.7,30.00,WNW,284,2.0,5.0,41,0.00,,,0.00,Wunderground v.1.15,2013-05-10 20:25:00,
2013-05-10 16:30:00,92.9,67.1,30.01,WNW,285,4.0,4.0,43,0.00,,,0.00,Wunderground v.1.15,2013-05-10 20:30:00,
2013-05-10 16:35:00,94.2,67.6,30.01,WNW,285,3.0,8.0,42,0.00,,,0.00,Wunderground v.1.15,2013-05-10 20:35:00,
2013-05-10 16:40:00,93.4,66.2,30.01,WNW,288,3.0,3.0,41,0.00,,,0.00,Wunderground v.1.15,2013-05-10 20:40:00,
2013-05-10 16:45:00,93.6,67.1,30.01,WNW,288,5.0,5.0,42,0.00,,,0.00,Wunderground v.1.15,2013-05-10 20:45:00,
2013-05-10 16:55:00,92.3,65.9,30.00,WNW,292,6.0,7.0,42,0.00,,,0.00,Wunderground v.1.15,2013-05-10 20:55:00,
2013-05-10 17:00:00,91.9,66.2,30.00,WNW,290,6.0,6.0,43,0.00,,,0.00,Wunderground v.1.15,2013-05-10 21:00:00,
2013-05-10 17:10:00,90.6,67.0,30.01,WNW,291,5.0,5.0,46,0.00,,,0.00,Wunderground v.1.15,2013-05-10 21:10:00,
2013-05-10 17:15:00,91.2,66.2,30.01,WNW,292,3.0,5.0,44,0.00,,,0.00,Wunderground v.1.15,2013-05-10 21:15:00,
2013-05-10 17:20:00,91.6,70.9,30.01,WNW,292,0.0,5.0,51,0.00,,,0.00,Wunderground v.1.15,2013-05-10 21:20:00,
2013-05-10 17:25:00,91.4,70.7,30.02,West,281,0.0,9.0,51,0.00,,,0.00,Wunderground v.1.15,2013-05-10 21:25:00,
2013-05-10 17:30:00,86.7,69.1,30.02,South,186,5.0,9.0,56,0.00,,,0.00,Wunderground v.1.15,2013-05-10 21:30:00,
2013-05-10 17:35:00,83.4,68.5,30.02,SE,140,10.0,11.0,61,0.00,,,0.00,Wunderground v.1.15,2013-05-10 21:35:00,
2013-05-10 17:45:00,82.9,68.5,30.03,South,181,6.0,10.0,62,0.00,,,0.00,Wunderground v.1.15,2013-05-10 21:45:00,
2013-05-10 17:50:00,82.9,70.4,30.04,South,182,2.0,6.0,66,0.00,,,0.00,Wunderground v.1.15,2013-05-10 21:50:00,
2013-05-10 17:55:00,80.2,69.5,30.04,South,190,2.0,6.0,70,0.00,,,0.00,Wunderground v.1.15,2013-05-10 21:55:00,
2013-05-10 18:00:00,79.1,68.9,30.04,South,186,3.0,8.0,71,0.00,,,0.00,Wunderground v.1.15,2013-05-10 22:00:00,
2013-05-10 18:05:00,78.1,69.1,30.04,SSW,201,4.0,8.0,74,0.00,,,0.00,Wunderground v.1.15,2013-05-10 22:05:00,
2013-05-10 18:10:00,77.8,68.4,30.04,South,190,6.0,10.0,73,0.00,,,0.00,Wunderground v.1.15,2013-05-10 22:10:00,
2013-05-10 18:20:00,77.3,69.1,30.05,SSW,203,9.0,9.0,76,0.00,,,0.00,Wunderground v.1.15,2013-05-10 22:20:00,
2013-05-10 18:25:00,77.1,68.6,30.06,SSE,158,9.0,11.0,75,0.00,,,0.00,Wunderground v.1.15,2013-05-10 22:25:00,
2013-05-10 18:30:00,77.6,68.3,30.06,South,188,7.0,10.0,73,0.00,,,0.00,Wunderground v.1.15,2013-05-10 22:30:00,
2013-05-10 18:35:00,78.2,67.2,30.06,SSE,166,8.0,10.0,69,0.00,,,0.00,Wunderground v.1.15,2013-05-10 22:35:00,
2013-05-10 18:40:00,78.0,67.8,30.06,South,171,8.0,8.0,71,0.00,,,0.00,Wunderground v.1.15,2013-05-10 22:40:00,
2013-05-10 18:45:00,78.6,68.8,30.06,SSE,153,7.0,8.0,72,0.00,,,0.00,Wunderground v.1.15,2013-05-10 22:45:00,
2013-05-10 18:55:00,79.3,67.8,30.07,SSE,153,5.0,8.0,68,0.00,,,0.00,Wunderground v.1.15,2013-05-10 22:55:00,
2013-05-10 19:00:00,79.1,68.1,30.06,SE,136,5.0,5.0,69,0.00,,,0.00,Wunderground v.1.15,2013-05-10 23:00:00,
2013-05-10 19:10:00,79.8,69.1,30.06,ESE,118,3.0,9.0,70,0.00,,,0.00,Wunderground v.1.15,2013-05-10 23:10:00,
2013-05-10 19:15:00,80.0,69.7,30.06,ESE,122,3.0,9.0,71,0.00,,,0.00,Wunderground v.1.15,2013-05-10 23:15:00,
2013-05-10 19:20:00,79.8,69.6,30.06,ESE,105,3.0,3.0,71,0.00,,,0.00,Wunderground v.1.15,2013-05-10 23:20:00,
2013-05-10 19:30:00,80.0,70.6,30.06,ESE,113,1.0,1.0,73,0.00,,,0.00,Wunderground v.1.15,2013-05-10 23:30:00,
2013-05-10 19:35:00,79.7,70.7,30.06,SE,124,1.0,9.0,74,0.00,,,0.00,Wunderground v.1.15,2013-05-10 23:35:00,
2013-05-10 19:40:00,79.8,70.8,30.06,NNE,32,1.0,1.0,74,0.00,,,0.00,Wunderground v.1.15,2013-05-10 23:40:00,
2013-05-10 19:45:00,79.7,70.7,30.06,SE,126,1.0,9.0,74,0.00,,,0.00,Wunderground v.1.15,2013-05-10 23:45:00,
2013-05-10 19:50:00,79.7,70.7,30.06,ESE,122,1.0,9.0,74,0.00,,,0.00,Wunderground v.1.15,2013-05-10 23:50:00,
2013-05-10 20:00:00,79.4,70.8,30.06,ESE,115,0.0,0.0,75,0.00,,,0.00,Wunderground v.1.15,2013-05-11 00:00:00,
2013-05-10 20:10:00,78.9,71.1,30.06,ESE,115,0.0,0.0,77,0.00,,,0.00,Wunderground v.1.15,2013-05-11 00:10:00,
2013-05-10 20:15:00,78.6,70.8,30.06,ESE,115,0.0,0.0,77,0.00,,,0.00,Wunderground v.1.15,2013-05-11 00:15:00,
2013-05-10 20:20:00,78.2,71.2,30.06,ESE,115,0.0,0.0,79,0.00,,,0.00,Wunderground v.1.15,2013-05-11 00:20:00,
2013-05-10 20:25:00,77.7,71.0,30.06,ESE,115,0.0,0.0,80,0.00,,,0.00,Wunderground v.1.15,2013-05-11 00:25:00,
2013-05-10 20:35:00,76.8,71.2,30.07,ESE,116,1.0,4.0,83,0.00,,,0.00,Wunderground v.1.15,2013-05-11 00:35:00,
2013-05-10 20:40:00,76.4,70.9,30.07,ESE,113,2.0,5.0,83,0.00,,,0.00,Wunderground v.1.15,2013-05-11 00:40:00,
2013-05-10 20:45:00,76.0,70.8,30.08,ESE,119,2.0,5.0,84,0.00,,,0.00,Wunderground v.1.15,2013-05-11 00:45:00,
2013-05-10 20:50:00,76.0,70.8,30.07,ESE,119,1.0,1.0,84,0.00,,,0.00,Wunderground v.1.15,2013-05-11 00:50:00,
2013-05-10 20:55:00,76.0,70.8,30.07,ESE,119,0.0,1.0,84,0.00,,,0.00,Wunderground v.1.15,2013-05-11 00:55:00,
2013-05-10 21:00:00,75.7,70.9,30.07,ESE,119,0.0,0.0,85,0.00,,,0.00,Wunderground v.1.15,2013-05-11 01:00:00,
2013-05-10 21:10:00,75.3,70.5,30.07,ESE,119,0.0,0.0,85,0.00,,,0.00,Wunderground v.1.15,2013-05-11 01:10:00,
2013-05-10 21:15:00,75.3,70.5,30.07,ESE,119,0.0,0.0,85,0.00,,,0.00,Wunderground v.1.15,2013-05-11 01:15:00,
2013-05-10 21:20:00,75.1,70.3,30.06,ESE,119,0.0,0.0,85,0.00,,,0.00,Wunderground v.1.15,2013-05-11 01:20:00,
2013-05-10 21:25:00,75.0,70.2,30.06,ESE,119,0.0,0.0,85,0.00,,,0.00,Wunderground v.1.15,2013-05-11 01:25:00,
2013-05-10 21:30:00,74.9,70.1,30.05,ESE,119,0.0,0.0,85,0.00,,,0.00,Wunderground v.1.15,2013-05-11 01:30:00,
2013-05-10 21:40:00,74.6,70.1,30.06,ESE,120,0.0,0.0,86,0.00,,,0.00,Wunderground v.1.15,2013-05-11 01:40:00,
2013-05-10 21:45:00,74.5,70.0,30.06,ESE,120,0.0,0.0,86,0.00,,,0.00,Wunderground v.1.15,2013-05-11 01:45:00,
2013-05-10 21:50:00,74.4,69.9,30.07,ESE,120,0.0,0.0,86,0.00,,,0.00,Wunderground v.1.15,2013-05-11 01:50:00,
2013-05-10 21:55:00,74.3,69.8,30.07,ESE,120,0.0,0.0,86,0.00,,,0.00,Wunderground v.1.15,2013-05-11 01:55:00,
2013-05-10 22:00:00,74.1,70.0,30.07,ESE,120,0.0,0.0,87,0.00,,,0.00,Wunderground v.1.15,2013-05-11 02:00:00,
2013-05-10 22:10:00,74.0,69.9,30.07,ESE,120,0.0,0.0,87,0.00,,,0.00,Wunderground v.1.15,2013-05-11 02:10:00,
2013-05-10 22:20:00,73.7,69.2,30.06,SE,128,0.0,0.0,86,0.00,,,0.00,Wunderground v.1.15,2013-05-11 02:20:00,
2013-05-10 22:25:00,73.6,69.5,30.07,SE,132,0.0,0.0,87,0.00,,,0.00,Wunderground v.1.15,2013-05-11 02:25:00,
2013-05-10 22:30:00,73.5,69.4,30.07,SE,132,0.0,0.0,87,0.00,,,0.00,Wunderground v.1.15,2013-05-11 02:30:00,
2013-05-10 22:35:00,73.4,69.3,30.06,SE,133,0.0,0.0,87,0.00,,,0.00,Wunderground v.1.15,2013-05-11 02:35:00,
2013-05-10 22:40:00,73.3,68.9,30.07,SE,133,0.0,5.0,86,0.00,,,0.00,Wunderground v.1.15,2013-05-11 02:40:00,
2013-05-10 22:50:00,73.3,68.9,30.07,SE,134,0.0,0.0,86,0.00,,,0.00,Wunderground v.1.15,2013-05-11 02:50:00,
2013-05-10 22:55:00,73.3,68.9,30.07,SE,134,0.0,0.0,86,0.00,,,0.00,Wunderground v.1.15,2013-05-11 02:55:00,
2013-05-10 23:00:00,73.1,68.7,30.07,SE,134,0.0,0.0,86,0.00,,,0.00,Wunderground v.1.15,2013-05-11 03:00:00,
2013-05-10 23:10:00,73.0,68.6,30.07,SE,134,0.0,0.0,86,0.00,,,0.00,Wunderground v.1.15,2013-05-11 03:10:00,
2013-05-10 23:15:00,72.9,68.5,30.07,SE,134,0.0,0.0,86,0.00,,,0.00,Wunderground v.1.15,2013-05-11 03:15:00,
2013-05-10 23:25:00,72.9,68.8,30.07,SE,134,0.0,0.0,87,0.00,,,0.00,Wunderground v.1.15,2013-05-11 03:25:00,
2013-05-10 23:35:00,72.7,68.3,30.07,SE,134,0.0,0.0,86,0.00,,,0.00,Wunderground v.1.15,2013-05-11 03:35:00,
2013-05-10 23:40:00,72.7,68.3,30.07,SE,134,0.0,0.0,86,0.00,,,0.00,Wunderground v.1.15,2013-05-11 03:40:00,
2013-05-10 23:45:00,72.7,68.3,30.07,SE,134,0.0,0.0,86,0.00,,,0.00,Wunderground v.1.15,2013-05-11 03:45:00,
2013-05-10 23:50:00,72.8,68.0,30.08,SE,134,0.0,0.0,85,0.00,,,0.00,Wunderground v.1.15,2013-05-11 03:50:00,